sensor_id;sensor_type;location;lat;lon;timestamp;P1;durP1;ratioP1;P2;durP2;ratioP2
76348;SDS011;65172;46.764;15.406;2023-12-07T00:01:33;341.17;;;37.83;;
76348;SDS011;65172;46.764;15.406;2023-12-07T00:04:00;184.77;;;34.55;;
76348;SDS011;65172;46.764;15.406;2023-12-07T00:06:26;484.67;;;40.28;;
76348;SDS011;65172;46.764;15.406;2023-12-07T00:08:51;165.32;;;34.45;;
76348;SDS011;65172;46.764;15.406;2023-12-07T00:11:17;83.80;;;31.13;;
76348;SDS011;65172;46.764;15.406;2023-12-07T00:13:42;89.63;;;31.08;;
76348;SDS011;65172;46.764;15.406;2023-12-07T00:16:08;138.20;;;33.78;;
76348;SDS011;65172;46.764;15.406;2023-12-07T00:18:33;305.83;;;36.88;;
76348;SDS011;65172;46.764;15.406;2023-12-07T00:20:59;64.93;;;32.42;;
76348;SDS011;65172;46.764;15.406;2023-12-07T00:23:24;170.23;;;35.83;;
76348;SDS011;65172;46.764;15.406;2023-12-07T00:25:50;310.23;;;39.33;;
76348;SDS011;65172;46.764;15.406;2023-12-07T00:28:15;233.25;;;35.70;;
76348;SDS011;65172;46.764;15.406;2023-12-07T00:30:41;196.80;;;35.80;;
76348;SDS011;65172;46.764;15.406;2023-12-07T00:33:07;561.60;;;39.00;;
76348;SDS011;65172;46.764;15.406;2023-12-07T00:35:34;1089.30;;;56.30;;
76348;SDS011;65172;46.764;15.406;2023-12-07T00:38:00;160.30;;;28.73;;
76348;SDS011;65172;46.764;15.406;2023-12-07T00:40:26;1252.15;;;56.25;;
76348;SDS011;65172;46.764;15.406;2023-12-07T00:42:52;213.50;;;28.77;;
76348;SDS011;65172;46.764;15.406;2023-12-07T00:45:18;203.13;;;32.53;;
76348;SDS011;65172;46.764;15.406;2023-12-07T00:47:43;276.17;;;33.08;;
76348;SDS011;65172;46.764;15.406;2023-12-07T00:50:11;644.20;;;39.45;;
76348;SDS011;65172;46.764;15.406;2023-12-07T00:52:37;801.42;;;43.85;;
76348;SDS011;65172;46.764;15.406;2023-12-07T00:55:03;120.60;;;28.83;;
76348;SDS011;65172;46.764;15.406;2023-12-07T00:57:29;1111.38;;;58.55;;
76348;SDS011;65172;46.764;15.406;2023-12-07T00:59:54;802.65;;;55.28;;
76348;SDS011;65172;46.764;15.406;2023-12-07T01:02:20;77.53;;;30.10;;
76348;SDS011;65172;46.764;15.406;2023-12-07T01:04:46;425.45;;;38.17;;
76348;SDS011;65172;46.764;15.406;2023-12-07T01:07:12;123.97;;;29.17;;
76348;SDS011;65172;46.764;15.406;2023-12-07T01:09:37;330.90;;;34.00;;
76348;SDS011;65172;46.764;15.406;2023-12-07T01:12:03;102.78;;;30.52;;
76348;SDS011;65172;46.764;15.406;2023-12-07T01:14:29;73.38;;;28.10;;
76348;SDS011;65172;46.764;15.406;2023-12-07T01:16:54;288.48;;;33.97;;
76348;SDS011;65172;46.764;15.406;2023-12-07T01:19:20;46.30;;;28.95;;
76348;SDS011;65172;46.764;15.406;2023-12-07T01:21:46;132.80;;;68.88;;
76348;SDS011;65172;46.764;15.406;2023-12-07T01:24:12;58.03;;;34.85;;
76348;SDS011;65172;46.764;15.406;2023-12-07T01:26:37;47.70;;;31.52;;
76348;SDS011;65172;46.764;15.406;2023-12-07T01:29:03;93.57;;;30.63;;
76348;SDS011;65172;46.764;15.406;2023-12-07T01:31:29;230.30;;;32.80;;
76348;SDS011;65172;46.764;15.406;2023-12-07T01:33:55;672.35;;;42.22;;
76348;SDS011;65172;46.764;15.406;2023-12-07T01:36:20;61.05;;;32.42;;
76348;SDS011;65172;46.764;15.406;2023-12-07T01:38:46;111.63;;;44.47;;
76348;SDS011;65172;46.764;15.406;2023-12-07T01:41:12;98.03;;;35.05;;
76348;SDS011;65172;46.764;15.406;2023-12-07T01:43:37;57.00;;;32.65;;
76348;SDS011;65172;46.764;15.406;2023-12-07T01:46:03;56.70;;;29.75;;
76348;SDS011;65172;46.764;15.406;2023-12-07T01:48:28;379.13;;;39.50;;
76348;SDS011;65172;46.764;15.406;2023-12-07T01:50:55;60.80;;;31.27;;
76348;SDS011;65172;46.764;15.406;2023-12-07T01:53:23;52.42;;;30.70;;
76348;SDS011;65172;46.764;15.406;2023-12-07T01:55:49;50.25;;;29.90;;
76348;SDS011;65172;46.764;15.406;2023-12-07T01:58:16;48.90;;;29.33;;
76348;SDS011;65172;46.764;15.406;2023-12-07T02:00:42;100.63;;;30.50;;
76348;SDS011;65172;46.764;15.406;2023-12-07T02:03:08;92.05;;;29.80;;
76348;SDS011;65172;46.764;15.406;2023-12-07T02:05:33;82.40;;;29.15;;
76348;SDS011;65172;46.764;15.406;2023-12-07T02:08:00;44.28;;;27.55;;
76348;SDS011;65172;46.764;15.406;2023-12-07T02:10:26;92.13;;;30.17;;
76348;SDS011;65172;46.764;15.406;2023-12-07T02:12:51;45.67;;;29.42;;
76348;SDS011;65172;46.764;15.406;2023-12-07T02:15:18;42.13;;;28.10;;
76348;SDS011;65172;46.764;15.406;2023-12-07T02:23:00;48.85;;;28.77;;
76348;SDS011;65172;46.764;15.406;2023-12-07T02:25:40;62.47;;;25.25;;
76348;SDS011;65172;46.764;15.406;2023-12-07T02:28:10;49.63;;;26.08;;
76348;SDS011;65172;46.764;15.406;2023-12-07T02:30:35;37.45;;;24.77;;
76348;SDS011;65172;46.764;15.406;2023-12-07T02:33:01;37.72;;;25.13;;
76348;SDS011;65172;46.764;15.406;2023-12-07T02:35:27;59.67;;;27.35;;
76348;SDS011;65172;46.764;15.406;2023-12-07T02:37:53;41.67;;;24.42;;
76348;SDS011;65172;46.764;15.406;2023-12-07T02:40:23;35.80;;;24.85;;
76348;SDS011;65172;46.764;15.406;2023-12-07T02:42:50;41.50;;;24.73;;
76348;SDS011;65172;46.764;15.406;2023-12-07T02:45:16;134.07;;;53.53;;
76348;SDS011;65172;46.764;15.406;2023-12-07T02:47:42;45.42;;;26.15;;
76348;SDS011;65172;46.764;15.406;2023-12-07T02:50:10;55.03;;;25.67;;
76348;SDS011;65172;46.764;15.406;2023-12-07T02:52:36;43.38;;;26.30;;
76348;SDS011;65172;46.764;15.406;2023-12-07T02:55:02;67.85;;;37.83;;
76348;SDS011;65172;46.764;15.406;2023-12-07T02:57:28;33.33;;;17.75;;
76348;SDS011;65172;46.764;15.406;2023-12-07T02:59:54;56.90;;;31.63;;
76348;SDS011;65172;46.764;15.406;2023-12-07T03:02:20;43.35;;;25.70;;
76348;SDS011;65172;46.764;15.406;2023-12-07T03:04:46;37.88;;;24.20;;
76348;SDS011;65172;46.764;15.406;2023-12-07T03:07:11;43.60;;;26.25;;
76348;SDS011;65172;46.764;15.406;2023-12-07T03:09:37;43.78;;;24.33;;
76348;SDS011;65172;46.764;15.406;2023-12-07T03:12:02;43.85;;;25.20;;
76348;SDS011;65172;46.764;15.406;2023-12-07T03:14:28;35.50;;;23.10;;
76348;SDS011;65172;46.764;15.406;2023-12-07T03:16:53;30.23;;;19.08;;
76348;SDS011;65172;46.764;15.406;2023-12-07T03:19:19;28.08;;;17.70;;
76348;SDS011;65172;46.764;15.406;2023-12-07T03:21:44;24.38;;;16.67;;
76348;SDS011;65172;46.764;15.406;2023-12-07T03:24:10;29.33;;;17.98;;
76348;SDS011;65172;46.764;15.406;2023-12-07T03:26:36;20.83;;;13.25;;
76348;SDS011;65172;46.764;15.406;2023-12-07T03:29:02;17.00;;;10.82;;
76348;SDS011;65172;46.764;15.406;2023-12-07T03:31:28;22.58;;;14.80;;
76348;SDS011;65172;46.764;15.406;2023-12-07T03:33:54;23.88;;;14.38;;
76348;SDS011;65172;46.764;15.406;2023-12-07T03:36:20;19.50;;;11.75;;
76348;SDS011;65172;46.764;15.406;2023-12-07T03:38:45;17.20;;;11.43;;
76348;SDS011;65172;46.764;15.406;2023-12-07T03:41:11;17.33;;;10.40;;
76348;SDS011;65172;46.764;15.406;2023-12-07T03:43:36;15.48;;;9.75;;
76348;SDS011;65172;46.764;15.406;2023-12-07T03:46:05;19.25;;;11.90;;
76348;SDS011;65172;46.764;15.406;2023-12-07T03:48:32;12.57;;;8.75;;
76348;SDS011;65172;46.764;15.406;2023-12-07T03:50:58;15.40;;;9.68;;
76348;SDS011;65172;46.764;15.406;2023-12-07T03:53:23;11.73;;;8.13;;
76348;SDS011;65172;46.764;15.406;2023-12-07T03:55:49;11.80;;;7.60;;
76348;SDS011;65172;46.764;15.406;2023-12-07T03:58:14;13.15;;;8.73;;
76348;SDS011;65172;46.764;15.406;2023-12-07T04:00:40;11.52;;;6.90;;
76348;SDS011;65172;46.764;15.406;2023-12-07T04:03:06;11.07;;;8.02;;
76348;SDS011;65172;46.764;15.406;2023-12-07T04:05:32;41.17;;;21.42;;
76348;SDS011;65172;46.764;15.406;2023-12-07T04:07:58;10.48;;;7.78;;
76348;SDS011;65172;46.764;15.406;2023-12-07T04:10:23;8.57;;;5.53;;
76348;SDS011;65172;46.764;15.406;2023-12-07T04:12:49;9.52;;;6.60;;
76348;SDS011;65172;46.764;15.406;2023-12-07T04:15:15;9.23;;;5.97;;
76348;SDS011;65172;46.764;15.406;2023-12-07T04:17:40;9.57;;;5.78;;
76348;SDS011;65172;46.764;15.406;2023-12-07T04:20:06;8.15;;;5.15;;
76348;SDS011;65172;46.764;15.406;2023-12-07T04:22:32;6.78;;;4.30;;
76348;SDS011;65172;46.764;15.406;2023-12-07T04:24:58;10.35;;;6.70;;
76348;SDS011;65172;46.764;15.406;2023-12-07T04:27:23;8.07;;;5.65;;
76348;SDS011;65172;46.764;15.406;2023-12-07T04:29:49;8.45;;;5.80;;
76348;SDS011;65172;46.764;15.406;2023-12-07T04:32:14;10.57;;;6.55;;
76348;SDS011;65172;46.764;15.406;2023-12-07T04:34:40;9.43;;;6.13;;
76348;SDS011;65172;46.764;15.406;2023-12-07T04:37:05;8.90;;;6.47;;
76348;SDS011;65172;46.764;15.406;2023-12-07T04:39:31;6.95;;;5.03;;
76348;SDS011;65172;46.764;15.406;2023-12-07T04:41:57;10.45;;;7.78;;
76348;SDS011;65172;46.764;15.406;2023-12-07T04:44:22;14.60;;;9.27;;
76348;SDS011;65172;46.764;15.406;2023-12-07T04:46:50;9.97;;;7.07;;
76348;SDS011;65172;46.764;15.406;2023-12-07T04:49:16;17.48;;;11.95;;
76348;SDS011;65172;46.764;15.406;2023-12-07T04:51:41;17.05;;;11.00;;
76348;SDS011;65172;46.764;15.406;2023-12-07T04:54:11;10.98;;;7.60;;
76348;SDS011;65172;46.764;15.406;2023-12-07T04:56:37;18.50;;;12.20;;
76348;SDS011;65172;46.764;15.406;2023-12-07T04:59:03;11.10;;;8.05;;
76348;SDS011;65172;46.764;15.406;2023-12-07T05:01:28;14.82;;;10.10;;
76348;SDS011;65172;46.764;15.406;2023-12-07T05:03:54;15.23;;;9.25;;
76348;SDS011;65172;46.764;15.406;2023-12-07T05:06:19;13.43;;;9.43;;
76348;SDS011;65172;46.764;15.406;2023-12-07T05:08:45;12.68;;;8.30;;
76348;SDS011;65172;46.764;15.406;2023-12-07T05:11:10;18.40;;;10.90;;
76348;SDS011;65172;46.764;15.406;2023-12-07T05:13:36;12.65;;;8.13;;
76348;SDS011;65172;46.764;15.406;2023-12-07T05:16:01;20.35;;;12.32;;
76348;SDS011;65172;46.764;15.406;2023-12-07T05:18:28;12.88;;;8.60;;
76348;SDS011;65172;46.764;15.406;2023-12-07T05:20:53;15.45;;;10.20;;
76348;SDS011;65172;46.764;15.406;2023-12-07T05:23:19;14.98;;;9.20;;
76348;SDS011;65172;46.764;15.406;2023-12-07T05:25:44;13.43;;;9.00;;
76348;SDS011;65172;46.764;15.406;2023-12-07T05:28:10;14.27;;;9.27;;
76348;SDS011;65172;46.764;15.406;2023-12-07T05:30:35;12.55;;;8.57;;
76348;SDS011;65172;46.764;15.406;2023-12-07T05:33:02;14.45;;;9.02;;
76348;SDS011;65172;46.764;15.406;2023-12-07T05:35:27;14.02;;;8.93;;
76348;SDS011;65172;46.764;15.406;2023-12-07T05:37:53;13.68;;;8.20;;
76348;SDS011;65172;46.764;15.406;2023-12-07T05:40:18;11.30;;;7.47;;
76348;SDS011;65172;46.764;15.406;2023-12-07T05:42:44;9.13;;;6.05;;
76348;SDS011;65172;46.764;15.406;2023-12-07T05:45:11;13.02;;;8.48;;
76348;SDS011;65172;46.764;15.406;2023-12-07T05:47:36;12.20;;;7.53;;
76348;SDS011;65172;46.764;15.406;2023-12-07T05:50:02;11.05;;;7.32;;
76348;SDS011;65172;46.764;15.406;2023-12-07T05:52:28;10.90;;;6.75;;
76348;SDS011;65172;46.764;15.406;2023-12-07T05:54:54;11.43;;;6.80;;
76348;SDS011;65172;46.764;15.406;2023-12-07T05:57:19;9.60;;;6.68;;
76348;SDS011;65172;46.764;15.406;2023-12-07T05:59:45;10.52;;;6.93;;
76348;SDS011;65172;46.764;15.406;2023-12-07T06:02:11;8.93;;;6.70;;
76348;SDS011;65172;46.764;15.406;2023-12-07T06:04:36;10.55;;;6.30;;
76348;SDS011;65172;46.764;15.406;2023-12-07T06:07:03;9.00;;;6.53;;
76348;SDS011;65172;46.764;15.406;2023-12-07T06:09:28;9.88;;;6.50;;
76348;SDS011;65172;46.764;15.406;2023-12-07T06:11:54;8.43;;;6.18;;
76348;SDS011;65172;46.764;15.406;2023-12-07T06:14:20;9.00;;;6.10;;
76348;SDS011;65172;46.764;15.406;2023-12-07T06:16:48;7.68;;;5.70;;
76348;SDS011;65172;46.764;15.406;2023-12-07T06:19:13;9.07;;;5.80;;
76348;SDS011;65172;46.764;15.406;2023-12-07T06:21:39;9.40;;;5.85;;
76348;SDS011;65172;46.764;15.406;2023-12-07T06:24:05;10.70;;;7.43;;
76348;SDS011;65172;46.764;15.406;2023-12-07T06:26:30;8.93;;;5.70;;
76348;SDS011;65172;46.764;15.406;2023-12-07T06:28:56;9.15;;;5.60;;
76348;SDS011;65172;46.764;15.406;2023-12-07T06:31:21;7.70;;;5.60;;
76348;SDS011;65172;46.764;15.406;2023-12-07T06:33:47;8.27;;;5.63;;
76348;SDS011;65172;46.764;15.406;2023-12-07T06:36:20;7.60;;;4.85;;
76348;SDS011;65172;46.764;15.406;2023-12-07T06:38:46;6.90;;;5.25;;
76348;SDS011;65172;46.764;15.406;2023-12-07T06:41:12;5.78;;;4.82;;
76348;SDS011;65172;46.764;15.406;2023-12-07T06:43:38;7.75;;;5.60;;
76348;SDS011;65172;46.764;15.406;2023-12-07T06:46:03;6.55;;;4.88;;
76348;SDS011;65172;46.764;15.406;2023-12-07T06:48:29;6.88;;;4.90;;
76348;SDS011;65172;46.764;15.406;2023-12-07T06:50:54;8.85;;;4.88;;
76348;SDS011;65172;46.764;15.406;2023-12-07T06:53:20;7.47;;;4.10;;
76348;SDS011;65172;46.764;15.406;2023-12-07T06:55:45;6.13;;;4.35;;
76348;SDS011;65172;46.764;15.406;2023-12-07T06:58:11;5.50;;;4.35;;
76348;SDS011;65172;46.764;15.406;2023-12-07T07:00:37;6.25;;;4.43;;
76348;SDS011;65172;46.764;15.406;2023-12-07T07:03:02;6.35;;;4.53;;
76348;SDS011;65172;46.764;15.406;2023-12-07T07:05:28;10.20;;;7.00;;
76348;SDS011;65172;46.764;15.406;2023-12-07T07:07:53;7.30;;;5.57;;
76348;SDS011;65172;46.764;15.406;2023-12-07T07:10:20;8.27;;;5.68;;
76348;SDS011;65172;46.764;15.406;2023-12-07T07:12:46;6.82;;;5.38;;
76348;SDS011;65172;46.764;15.406;2023-12-07T07:15:11;8.15;;;5.43;;
76348;SDS011;65172;46.764;15.406;2023-12-07T07:17:37;10.52;;;6.18;;
76348;SDS011;65172;46.764;15.406;2023-12-07T07:20:02;7.40;;;5.35;;
76348;SDS011;65172;46.764;15.406;2023-12-07T07:22:28;9.52;;;5.55;;
76348;SDS011;65172;46.764;15.406;2023-12-07T07:24:54;7.82;;;5.55;;
76348;SDS011;65172;46.764;15.406;2023-12-07T07:27:19;7.50;;;5.25;;
76348;SDS011;65172;46.764;15.406;2023-12-07T07:29:45;6.05;;;4.78;;
76348;SDS011;65172;46.764;15.406;2023-12-07T07:32:11;6.93;;;4.85;;
76348;SDS011;65172;46.764;15.406;2023-12-07T07:34:36;7.45;;;5.35;;
76348;SDS011;65172;46.764;15.406;2023-12-07T07:37:02;7.78;;;5.55;;
76348;SDS011;65172;46.764;15.406;2023-12-07T07:39:28;5.47;;;4.85;;
76348;SDS011;65172;46.764;15.406;2023-12-07T07:41:53;8.55;;;5.55;;
76348;SDS011;65172;46.764;15.406;2023-12-07T07:44:19;8.20;;;5.10;;
76348;SDS011;65172;46.764;15.406;2023-12-07T07:46:44;6.63;;;5.32;;
76348;SDS011;65172;46.764;15.406;2023-12-07T07:49:11;7.55;;;5.53;;
76348;SDS011;65172;46.764;15.406;2023-12-07T07:51:37;29.88;;;18.55;;
76348;SDS011;65172;46.764;15.406;2023-12-07T07:54:03;18.25;;;12.40;;
76348;SDS011;65172;46.764;15.406;2023-12-07T07:56:29;12.40;;;7.65;;
76348;SDS011;65172;46.764;15.406;2023-12-07T07:58:54;7.22;;;5.75;;
76348;SDS011;65172;46.764;15.406;2023-12-07T08:01:20;6.40;;;5.35;;
76348;SDS011;65172;46.764;15.406;2023-12-07T08:03:45;7.82;;;5.40;;
76348;SDS011;65172;46.764;15.406;2023-12-07T08:06:11;6.55;;;4.85;;
76348;SDS011;65172;46.764;15.406;2023-12-07T08:08:36;6.85;;;4.88;;
76348;SDS011;65172;46.764;15.406;2023-12-07T08:11:02;6.13;;;4.50;;
76348;SDS011;65172;46.764;15.406;2023-12-07T08:13:27;6.93;;;5.07;;
76348;SDS011;65172;46.764;15.406;2023-12-07T08:15:54;6.50;;;5.05;;
76348;SDS011;65172;46.764;15.406;2023-12-07T08:18:20;7.18;;;4.93;;
76348;SDS011;65172;46.764;15.406;2023-12-07T08:20:47;4.90;;;4.40;;
76348;SDS011;65172;46.764;15.406;2023-12-07T08:23:13;5.85;;;4.15;;
76348;SDS011;65172;46.764;15.406;2023-12-07T08:25:38;5.68;;;4.50;;
76348;SDS011;65172;46.764;15.406;2023-12-07T08:28:05;7.10;;;4.35;;
76348;SDS011;65172;46.764;15.406;2023-12-07T08:30:31;5.47;;;4.88;;
76348;SDS011;65172;46.764;15.406;2023-12-07T08:32:56;8.82;;;6.10;;
76348;SDS011;65172;46.764;15.406;2023-12-07T08:35:22;7.05;;;5.32;;
76348;SDS011;65172;46.764;15.406;2023-12-07T08:37:48;8.60;;;5.97;;
76348;SDS011;65172;46.764;15.406;2023-12-07T08:40:13;7.60;;;6.00;;
76348;SDS011;65172;46.764;15.406;2023-12-07T08:42:40;6.13;;;5.25;;
76348;SDS011;65172;46.764;15.406;2023-12-07T08:45:08;11.50;;;6.30;;
76348;SDS011;65172;46.764;15.406;2023-12-07T08:47:34;9.43;;;5.78;;
76348;SDS011;65172;46.764;15.406;2023-12-07T08:50:00;5.70;;;4.60;;
76348;SDS011;65172;46.764;15.406;2023-12-07T08:52:25;11.02;;;6.43;;
76348;SDS011;65172;46.764;15.406;2023-12-07T08:54:51;5.75;;;4.85;;
76348;SDS011;65172;46.764;15.406;2023-12-07T08:57:17;5.60;;;4.53;;
76348;SDS011;65172;46.764;15.406;2023-12-07T08:59:43;4.78;;;3.85;;
76348;SDS011;65172;46.764;15.406;2023-12-07T09:02:08;4.82;;;3.70;;
76348;SDS011;65172;46.764;15.406;2023-12-07T09:04:34;7.60;;;4.45;;
76348;SDS011;65172;46.764;15.406;2023-12-07T09:06:59;4.30;;;3.88;;
76348;SDS011;65172;46.764;15.406;2023-12-07T09:09:25;4.55;;;4.03;;
76348;SDS011;65172;46.764;15.406;2023-12-07T09:11:50;4.60;;;4.13;;
76348;SDS011;65172;46.764;15.406;2023-12-07T09:14:16;6.97;;;5.10;;
76348;SDS011;65172;46.764;15.406;2023-12-07T09:16:45;7.88;;;5.18;;
76348;SDS011;65172;46.764;15.406;2023-12-07T09:19:11;11.57;;;7.55;;
76348;SDS011;65172;46.764;15.406;2023-12-07T09:21:39;11.38;;;8.05;;
76348;SDS011;65172;46.764;15.406;2023-12-07T09:24:05;13.43;;;9.57;;
76348;SDS011;65172;46.764;15.406;2023-12-07T09:26:31;10.15;;;7.20;;
76348;SDS011;65172;46.764;15.406;2023-12-07T09:28:57;10.27;;;6.10;;
76348;SDS011;65172;46.764;15.406;2023-12-07T09:31:23;9.20;;;6.38;;
76348;SDS011;65172;46.764;15.406;2023-12-07T09:33:48;9.18;;;6.80;;
76348;SDS011;65172;46.764;15.406;2023-12-07T09:36:17;10.70;;;6.05;;
76348;SDS011;65172;46.764;15.406;2023-12-07T09:38:44;8.75;;;6.40;;
76348;SDS011;65172;46.764;15.406;2023-12-07T09:41:10;9.55;;;6.40;;
76348;SDS011;65172;46.764;15.406;2023-12-07T09:43:36;12.43;;;7.88;;
76348;SDS011;65172;46.764;15.406;2023-12-07T09:46:01;5.75;;;4.82;;
76348;SDS011;65172;46.764;15.406;2023-12-07T09:48:27;7.93;;;5.05;;
76348;SDS011;65172;46.764;15.406;2023-12-07T09:50:54;32.92;;;19.02;;
76348;SDS011;65172;46.764;15.406;2023-12-07T09:53:21;17.65;;;12.10;;
76348;SDS011;65172;46.764;15.406;2023-12-07T09:55:47;11.20;;;8.38;;
76348;SDS011;65172;46.764;15.406;2023-12-07T09:58:12;23.20;;;16.85;;
76348;SDS011;65172;46.764;15.406;2023-12-07T10:00:38;14.90;;;9.18;;
76348;SDS011;65172;46.764;15.406;2023-12-07T10:03:04;15.30;;;10.57;;
76348;SDS011;65172;46.764;15.406;2023-12-07T10:05:33;19.20;;;13.60;;
76348;SDS011;65172;46.764;15.406;2023-12-07T10:07:59;21.42;;;14.45;;
76348;SDS011;65172;46.764;15.406;2023-12-07T10:10:24;20.63;;;13.65;;
76348;SDS011;65172;46.764;15.406;2023-12-07T10:12:55;16.02;;;12.77;;
76348;SDS011;65172;46.764;15.406;2023-12-07T10:15:22;17.27;;;13.23;;
76348;SDS011;65172;46.764;15.406;2023-12-07T10:17:58;19.23;;;13.65;;
76348;SDS011;65172;46.764;15.406;2023-12-07T10:20:25;17.55;;;13.30;;
76348;SDS011;65172;46.764;15.406;2023-12-07T10:23:05;16.80;;;13.02;;
76348;SDS011;65172;46.764;15.406;2023-12-07T10:25:33;16.70;;;11.00;;
76348;SDS011;65172;46.764;15.406;2023-12-07T10:28:00;15.90;;;11.38;;
76348;SDS011;65172;46.764;15.406;2023-12-07T10:30:29;16.10;;;10.43;;
76348;SDS011;65172;46.764;15.406;2023-12-07T10:32:54;13.98;;;9.52;;
76348;SDS011;65172;46.764;15.406;2023-12-07T10:35:20;11.60;;;8.80;;
76348;SDS011;65172;46.764;15.406;2023-12-07T10:37:46;11.82;;;8.60;;
76348;SDS011;65172;46.764;15.406;2023-12-07T10:40:12;11.93;;;9.07;;
76348;SDS011;65172;46.764;15.406;2023-12-07T10:42:37;12.05;;;8.50;;
76348;SDS011;65172;46.764;15.406;2023-12-07T10:45:06;62.47;;;42.30;;
76348;SDS011;65172;46.764;15.406;2023-12-07T10:47:35;15.63;;;10.40;;
76348;SDS011;65172;46.764;15.406;2023-12-07T10:50:05;8.45;;;6.55;;
76348;SDS011;65172;46.764;15.406;2023-12-07T10:52:36;10.23;;;7.85;;
76348;SDS011;65172;46.764;15.406;2023-12-07T10:55:03;9.07;;;6.38;;
76348;SDS011;65172;46.764;15.406;2023-12-07T10:57:33;6.20;;;4.88;;
76348;SDS011;65172;46.764;15.406;2023-12-07T10:59:59;6.57;;;5.45;;
76348;SDS011;65172;46.764;15.406;2023-12-07T11:02:26;6.60;;;4.95;;
76348;SDS011;65172;46.764;15.406;2023-12-07T11:04:54;4.70;;;4.05;;
76348;SDS011;65172;46.764;15.406;2023-12-07T11:07:21;4.80;;;3.47;;
76348;SDS011;65172;46.764;15.406;2023-12-07T11:09:51;4.85;;;3.97;;
76348;SDS011;65172;46.764;15.406;2023-12-07T11:14:46;4.85;;;3.63;;
76348;SDS011;65172;46.764;15.406;2023-12-07T11:17:11;6.82;;;4.57;;
76348;SDS011;65172;46.764;15.406;2023-12-07T11:22:07;7.30;;;4.57;;
76348;SDS011;65172;46.764;15.406;2023-12-07T11:24:33;5.18;;;4.32;;
76348;SDS011;65172;46.764;15.406;2023-12-07T11:27:01;6.60;;;5.20;;
76348;SDS011;65172;46.764;15.406;2023-12-07T11:29:30;6.03;;;4.80;;
76348;SDS011;65172;46.764;15.406;2023-12-07T11:31:58;6.72;;;4.90;;
76348;SDS011;65172;46.764;15.406;2023-12-07T11:37:04;5.03;;;4.20;;
76348;SDS011;65172;46.764;15.406;2023-12-07T11:39:36;7.55;;;5.10;;
76348;SDS011;65172;46.764;15.406;2023-12-07T11:42:06;14.07;;;8.32;;
76348;SDS011;65172;46.764;15.406;2023-12-07T11:44:38;9.55;;;6.95;;
76348;SDS011;65172;46.764;15.406;2023-12-07T11:47:05;14.18;;;10.32;;
76348;SDS011;65172;46.764;15.406;2023-12-07T11:49:31;16.30;;;10.35;;
76348;SDS011;65172;46.764;15.406;2023-12-07T11:51:58;18.20;;;10.73;;
76348;SDS011;65172;46.764;15.406;2023-12-07T11:54:24;15.52;;;12.45;;
76348;SDS011;65172;46.764;15.406;2023-12-07T11:56:57;9.63;;;6.82;;
76348;SDS011;65172;46.764;15.406;2023-12-07T11:59:22;7.78;;;5.55;;
76348;SDS011;65172;46.764;15.406;2023-12-07T12:01:50;9.43;;;5.97;;
76348;SDS011;65172;46.764;15.406;2023-12-07T12:04:16;7.75;;;5.65;;
76348;SDS011;65172;46.764;15.406;2023-12-07T12:06:45;8.60;;;6.00;;
76348;SDS011;65172;46.764;15.406;2023-12-07T12:09:14;9.65;;;6.15;;
76348;SDS011;65172;46.764;15.406;2023-12-07T12:11:46;9.63;;;5.60;;
76348;SDS011;65172;46.764;15.406;2023-12-07T12:14:13;5.93;;;4.70;;
76348;SDS011;65172;46.764;15.406;2023-12-07T12:16:39;4.72;;;4.10;;
76348;SDS011;65172;46.764;15.406;2023-12-07T12:19:05;8.68;;;5.35;;
76348;SDS011;65172;46.764;15.406;2023-12-07T12:21:33;11.30;;;8.40;;
76348;SDS011;65172;46.764;15.406;2023-12-07T12:24:00;15.20;;;9.57;;
76348;SDS011;65172;46.764;15.406;2023-12-07T12:26:25;12.80;;;8.23;;
76348;SDS011;65172;46.764;15.406;2023-12-07T12:28:51;10.82;;;6.25;;
76348;SDS011;65172;46.764;15.406;2023-12-07T12:31:17;10.43;;;6.53;;
76348;SDS011;65172;46.764;15.406;2023-12-07T12:33:43;9.95;;;5.68;;
76348;SDS011;65172;46.764;15.406;2023-12-07T12:36:09;11.02;;;5.63;;
76348;SDS011;65172;46.764;15.406;2023-12-07T12:38:36;9.63;;;5.88;;
76348;SDS011;65172;46.764;15.406;2023-12-07T12:41:02;10.52;;;5.70;;
76348;SDS011;65172;46.764;15.406;2023-12-07T12:43:29;11.13;;;7.07;;
76348;SDS011;65172;46.764;15.406;2023-12-07T12:45:56;10.07;;;6.30;;
76348;SDS011;65172;46.764;15.406;2023-12-07T12:48:23;11.10;;;6.28;;
76348;SDS011;65172;46.764;15.406;2023-12-07T12:50:48;10.15;;;6.93;;
76348;SDS011;65172;46.764;15.406;2023-12-07T12:53:14;10.52;;;7.22;;
76348;SDS011;65172;46.764;15.406;2023-12-07T12:55:40;7.35;;;5.68;;
76348;SDS011;65172;46.764;15.406;2023-12-07T12:58:07;10.88;;;6.47;;
76348;SDS011;65172;46.764;15.406;2023-12-07T13:00:33;10.73;;;6.82;;
76348;SDS011;65172;46.764;15.406;2023-12-07T13:03:00;10.93;;;6.78;;
76348;SDS011;65172;46.764;15.406;2023-12-07T13:05:26;9.65;;;6.20;;
76348;SDS011;65172;46.764;15.406;2023-12-07T13:07:52;8.38;;;6.40;;
76348;SDS011;65172;46.764;15.406;2023-12-07T13:10:18;9.27;;;6.22;;
76348;SDS011;65172;46.764;15.406;2023-12-07T13:12:44;8.02;;;6.53;;
76348;SDS011;65172;46.764;15.406;2023-12-07T13:15:10;9.05;;;6.25;;
76348;SDS011;65172;46.764;15.406;2023-12-07T13:17:37;8.80;;;5.68;;
76348;SDS011;65172;46.764;15.406;2023-12-07T13:20:04;7.40;;;6.22;;
76348;SDS011;65172;46.764;15.406;2023-12-07T13:22:32;11.05;;;6.85;;
76348;SDS011;65172;46.764;15.406;2023-12-07T13:24:58;11.80;;;7.63;;
76348;SDS011;65172;46.764;15.406;2023-12-07T13:27:23;9.52;;;6.50;;
76348;SDS011;65172;46.764;15.406;2023-12-07T13:29:49;13.18;;;6.57;;
76348;SDS011;65172;46.764;15.406;2023-12-07T13:32:15;11.60;;;7.60;;
76348;SDS011;65172;46.764;15.406;2023-12-07T13:34:41;13.02;;;8.65;;
76348;SDS011;65172;46.764;15.406;2023-12-07T13:37:06;13.25;;;8.35;;
76348;SDS011;65172;46.764;15.406;2023-12-07T13:39:32;11.75;;;8.10;;
76348;SDS011;65172;46.764;15.406;2023-12-07T13:41:58;15.10;;;7.55;;
76348;SDS011;65172;46.764;15.406;2023-12-07T13:44:23;9.70;;;6.90;;
76348;SDS011;65172;46.764;15.406;2023-12-07T13:46:49;10.50;;;6.97;;
76348;SDS011;65172;46.764;15.406;2023-12-07T13:49:15;10.85;;;6.72;;
76348;SDS011;65172;46.764;15.406;2023-12-07T13:51:40;11.32;;;7.05;;
76348;SDS011;65172;46.764;15.406;2023-12-07T13:54:06;9.40;;;6.63;;
76348;SDS011;65172;46.764;15.406;2023-12-07T13:56:33;10.90;;;7.13;;
76348;SDS011;65172;46.764;15.406;2023-12-07T13:59:00;10.82;;;6.97;;
76348;SDS011;65172;46.764;15.406;2023-12-07T14:01:26;8.30;;;6.35;;
76348;SDS011;65172;46.764;15.406;2023-12-07T14:03:51;10.13;;;6.32;;
76348;SDS011;65172;46.764;15.406;2023-12-07T14:06:24;10.27;;;6.80;;
76348;SDS011;65172;46.764;15.406;2023-12-07T14:08:50;15.48;;;7.18;;
76348;SDS011;65172;46.764;15.406;2023-12-07T14:11:18;11.02;;;7.35;;
76348;SDS011;65172;46.764;15.406;2023-12-07T14:13:44;12.57;;;7.38;;
76348;SDS011;65172;46.764;15.406;2023-12-07T14:16:12;11.18;;;6.90;;
76348;SDS011;65172;46.764;15.406;2023-12-07T14:18:37;11.35;;;7.53;;
76348;SDS011;65172;46.764;15.406;2023-12-07T14:21:03;10.70;;;6.90;;
76348;SDS011;65172;46.764;15.406;2023-12-07T14:23:29;9.27;;;6.20;;
76348;SDS011;65172;46.764;15.406;2023-12-07T14:25:55;11.50;;;7.65;;
76348;SDS011;65172;46.764;15.406;2023-12-07T14:28:23;14.60;;;8.75;;